sensor_id;sensor_type;location;lat;lon;timestamp;temperature;humidity
8231;DHT22;4156;50.908;6.974;2022-10-16T00:01:47;16.70;99.90
8231;DHT22;4156;50.908;6.974;2022-10-16T00:04:12;16.70;99.90
8231;DHT22;4156;50.908;6.974;2022-10-16T00:06:38;16.70;99.90
8231;DHT22;4156;50.908;6.974;2022-10-16T00:09:05;16.70;99.90
8231;DHT22;4156;50.908;6.974;2022-10-16T00:11:33;16.70;99.90
8231;DHT22;4156;50.908;6.974;2022-10-16T00:14:01;16.70;99.90
8231;DHT22;4156;50.908;6.974;2022-10-16T00:16:28;16.70;99.90
8231;DHT22;4156;50.908;6.974;2022-10-16T00:18:54;16.70;99.90
8231;DHT22;4156;50.908;6.974;2022-10-16T00:21:22;16.70;99.90
8231;DHT22;4156;50.908;6.974;2022-10-16T00:23:57;16.70;99.90
8231;DHT22;4156;50.908;6.974;2022-10-16T00:26:22;16.70;99.90
8231;DHT22;4156;50.908;6.974;2022-10-16T00:28:50;16.70;99.90
8231;DHT22;4156;50.908;6.974;2022-10-16T00:31:18;16.70;99.90
8231;DHT22;4156;50.908;6.974;2022-10-16T00:33:43;16.70;99.90
8231;DHT22;4156;50.908;6.974;2022-10-16T00:36:14;16.70;99.90
8231;DHT22;4156;50.908;6.974;2022-10-16T00:38:41;16.60;99.90
8231;DHT22;4156;50.908;6.974;2022-10-16T00:41:09;16.60;99.90
8231;DHT22;4156;50.908;6.974;2022-10-16T00:43:45;16.60;99.90
8231;DHT22;4156;50.908;6.974;2022-10-16T00:49:12;16.60;99.90
8231;DHT22;4156;50.908;6.974;2022-10-16T00:51:40;16.60;99.90
8231;DHT22;4156;50.908;6.974;2022-10-16T00:54:16;16.60;99.90
8231;DHT22;4156;50.908;6.974;2022-10-16T00:56:43;16.60;99.90
8231;DHT22;4156;50.908;6.974;2022-10-16T01:01:45;16.60;99.90
8231;DHT22;4156;50.908;6.974;2022-10-16T01:04:11;16.60;99.90
8231;DHT22;4156;50.908;6.974;2022-10-16T01:12:03;16.50;99.90
8231;DHT22;4156;50.908;6.974;2022-10-16T01:14:43;16.50;99.90
8231;DHT22;4156;50.908;6.974;2022-10-16T01:17:13;16.50;99.90
8231;DHT22;4156;50.908;6.974;2022-10-16T01:19:44;16.50;99.90
8231;DHT22;4156;50.908;6.974;2022-10-16T01:22:13;16.60;99.90
8231;DHT22;4156;50.908;6.974;2022-10-16T01:24:40;16.50;99.90
8231;DHT22;4156;50.908;6.974;2022-10-16T01:32:15;16.50;99.90
8231;DHT22;4156;50.908;6.974;2022-10-16T01:34:52;16.50;99.90
8231;DHT22;4156;50.908;6.974;2022-10-16T01:37:27;16.40;99.90
8231;DHT22;4156;50.908;6.974;2022-10-16T01:39:57;16.40;99.90
8231;DHT22;4156;50.908;6.974;2022-10-16T01:42:27;16.40;99.90
8231;DHT22;4156;50.908;6.974;2022-10-16T01:44:55;16.40;99.90
8231;DHT22;4156;50.908;6.974;2022-10-16T01:47:23;16.40;99.90
8231;DHT22;4156;50.908;6.974;2022-10-16T01:49:51;16.50;99.90
8231;DHT22;4156;50.908;6.974;2022-10-16T01:52:20;16.40;99.90
8231;DHT22;4156;50.908;6.974;2022-10-16T01:54:50;16.40;99.90
8231;DHT22;4156;50.908;6.974;2022-10-16T01:57:18;16.40;99.90
8231;DHT22;4156;50.908;6.974;2022-10-16T01:59:48;16.40;99.90
8231;DHT22;4156;50.908;6.974;2022-10-16T02:02:17;16.40;99.90
8231;DHT22;4156;50.908;6.974;2022-10-16T02:04:47;16.40;99.90
8231;DHT22;4156;50.908;6.974;2022-10-16T02:07:15;16.40;99.90
8231;DHT22;4156;50.908;6.974;2022-10-16T02:09:41;16.30;99.90
8231;DHT22;4156;50.908;6.974;2022-10-16T02:12:14;16.40;99.90
8231;DHT22;4156;50.908;6.974;2022-10-16T02:14:40;16.40;99.90
8231;DHT22;4156;50.908;6.974;2022-10-16T02:17:15;16.30;99.90
8231;DHT22;4156;50.908;6.974;2022-10-16T02:19:41;16.30;99.90
8231;DHT22;4156;50.908;6.974;2022-10-16T02:22:09;16.30;99.90
8231;DHT22;4156;50.908;6.974;2022-10-16T02:24:52;16.30;99.90
8231;DHT22;4156;50.908;6.974;2022-10-16T02:27:35;16.30;99.90
8231;DHT22;4156;50.908;6.974;2022-10-16T02:30:08;16.40;99.90
8231;DHT22;4156;50.908;6.974;2022-10-16T02:32:40;16.30;99.90
8231;DHT22;4156;50.908;6.974;2022-10-16T02:35:08;16.30;99.90
8231;DHT22;4156;50.908;6.974;2022-10-16T02:37:34;16.30;99.90
8231;DHT22;4156;50.908;6.974;2022-10-16T02:40:00;16.30;99.90
8231;DHT22;4156;50.908;6.974;2022-10-16T02:42:33;16.40;99.90
8231;DHT22;4156;50.908;6.974;2022-10-16T02:44:59;16.30;99.90
8231;DHT22;4156;50.908;6.974;2022-10-16T02:47:25;16.30;99.90
8231;DHT22;4156;50.908;6.974;2022-10-16T02:49:50;16.30;99.90
8231;DHT22;4156;50.908;6.974;2022-10-16T02:52:16;16.30;99.90
8231;DHT22;4156;50.908;6.974;2022-10-16T02:54:41;16.30;99.90
8231;DHT22;4156;50.908;6.974;2022-10-16T02:57:07;16.30;99.90
8231;DHT22;4156;50.908;6.974;2022-10-16T02:59:32;16.40;99.90
8231;DHT22;4156;50.908;6.974;2022-10-16T03:01:58;16.30;99.90
8231;DHT22;4156;50.908;6.974;2022-10-16T03:04:23;16.30;99.90
8231;DHT22;4156;50.908;6.974;2022-10-16T03:06:49;16.30;99.90
8231;DHT22;4156;50.908;6.974;2022-10-16T03:09:14;16.30;99.90
8231;DHT22;4156;50.908;6.974;2022-10-16T03:11:40;16.30;99.90
8231;DHT22;4156;50.908;6.974;2022-10-16T03:14:06;16.30;99.90
8231;DHT22;4156;50.908;6.974;2022-10-16T03:16:31;16.30;99.90
8231;DHT22;4156;50.908;6.974;2022-10-16T03:18:57;16.30;99.90
8231;DHT22;4156;50.908;6.974;2022-10-16T03:21:22;16.30;99.90
8231;DHT22;4156;50.908;6.974;2022-10-16T03:23:48;16.20;99.90
8231;DHT22;4156;50.908;6.974;2022-10-16T03:26:13;16.20;99.90
8231;DHT22;4156;50.908;6.974;2022-10-16T03:28:39;16.20;99.90
8231;DHT22;4156;50.908;6.974;2022-10-16T03:31:05;16.20;99.90
8231;DHT22;4156;50.908;6.974;2022-10-16T03:33:30;16.20;99.90
8231;DHT22;4156;50.908;6.974;2022-10-16T03:35:56;16.20;99.90
8231;DHT22;4156;50.908;6.974;2022-10-16T03:38:22;16.20;99.90
8231;DHT22;4156;50.908;6.974;2022-10-16T03:40:47;16.20;99.90
8231;DHT22;4156;50.908;6.974;2022-10-16T03:43:13;16.20;99.90
8231;DHT22;4156;50.908;6.974;2022-10-16T03:45:39;16.20;99.90
8231;DHT22;4156;50.908;6.974;2022-10-16T03:48:05;16.20;99.90
8231;DHT22;4156;50.908;6.974;2022-10-16T03:50:31;16.20;99.90
8231;DHT22;4156;50.908;6.974;2022-10-16T03:52:56;16.20;99.90
8231;DHT22;4156;50.908;6.974;2022-10-16T03:55:22;16.20;99.90
8231;DHT22;4156;50.908;6.974;2022-10-16T03:57:47;16.20;99.90
8231;DHT22;4156;50.908;6.974;2022-10-16T04:00:13;16.20;99.90
8231;DHT22;4156;50.908;6.974;2022-10-16T04:02:39;16.20;99.90
8231;DHT22;4156;50.908;6.974;2022-10-16T04:05:05;16.20;99.90
8231;DHT22;4156;50.908;6.974;2022-10-16T04:07:31;16.20;99.90
8231;DHT22;4156;50.908;6.974;2022-10-16T04:09:57;16.20;99.90
8231;DHT22;4156;50.908;6.974;2022-10-16T04:12:24;16.20;99.90
8231;DHT22;4156;50.908;6.974;2022-10-16T04:14:50;16.20;99.90
8231;DHT22;4156;50.908;6.974;2022-10-16T04:17:15;16.20;99.90
8231;DHT22;4156;50.908;6.974;2022-10-16T04:19:41;16.20;99.90
8231;DHT22;4156;50.908;6.974;2022-10-16T04:22:07;16.10;99.90
8231;DHT22;4156;50.908;6.974;2022-10-16T04:24:32;16.20;99.90
8231;DHT22;4156;50.908;6.974;2022-10-16T04:26:58;16.20;99.90
8231;DHT22;4156;50.908;6.974;2022-10-16T04:29:24;16.20;99.90
8231;DHT22;4156;50.908;6.974;2022-10-16T04:31:49;16.20;99.90
8231;DHT22;4156;50.908;6.974;2022-10-16T04:34:15;16.20;99.90
8231;DHT22;4156;50.908;6.974;2022-10-16T04:36:40;16.20;99.90
8231;DHT22;4156;50.908;6.974;2022-10-16T04:39:06;16.20;99.90
8231;DHT22;4156;50.908;6.974;2022-10-16T04:41:31;16.20;99.90
8231;DHT22;4156;50.908;6.974;2022-10-16T04:43:57;16.20;99.90
8231;DHT22;4156;50.908;6.974;2022-10-16T04:46:22;16.20;99.90
8231;DHT22;4156;50.908;6.974;2022-10-16T04:48:48;16.20;99.90
8231;DHT22;4156;50.908;6.974;2022-10-16T04:51:13;16.20;99.90
8231;DHT22;4156;50.908;6.974;2022-10-16T04:53:39;16.10;99.90
8231;DHT22;4156;50.908;6.974;2022-10-16T04:56:05;16.10;99.90
8231;DHT22;4156;50.908;6.974;2022-10-16T04:58:30;16.10;99.90
8231;DHT22;4156;50.908;6.974;2022-10-16T05:00:56;16.10;99.90
8231;DHT22;4156;50.908;6.974;2022-10-16T05:03:21;16.10;99.90
8231;DHT22;4156;50.908;6.974;2022-10-16T05:05:47;16.10;99.90
8231;DHT22;4156;50.908;6.974;2022-10-16T05:08:14;16.10;99.90
8231;DHT22;4156;50.908;6.974;2022-10-16T05:10:42;16.10;99.90
8231;DHT22;4156;50.908;6.974;2022-10-16T05:13:07;16.10;99.90
8231;DHT22;4156;50.908;6.974;2022-10-16T05:15:33;16.10;99.90
8231;DHT22;4156;50.908;6.974;2022-10-16T05:17:59;16.10;99.90
8231;DHT22;4156;50.908;6.974;2022-10-16T05:20:24;16.30;99.90
8231;DHT22;4156;50.908;6.974;2022-10-16T05:22:50;16.10;99.90
8231;DHT22;4156;50.908;6.974;2022-10-16T05:25:16;16.10;99.90
8231;DHT22;4156;50.908;6.974;2022-10-16T05:27:41;16.20;99.90
8231;DHT22;4156;50.908;6.974;2022-10-16T05:30:07;16.20;99.90
8231;DHT22;4156;50.908;6.974;2022-10-16T05:32:33;16.20;99.90
8231;DHT22;4156;50.908;6.974;2022-10-16T05:34:58;16.20;99.90
8231;DHT22;4156;50.908;6.974;2022-10-16T05:37:25;16.20;99.90
8231;DHT22;4156;50.908;6.974;2022-10-16T05:39:52;16.20;99.90
8231;DHT22;4156;50.908;6.974;2022-10-16T05:42:17;16.20;99.90
8231;DHT22;4156;50.908;6.974;2022-10-16T05:44:43;16.20;99.90
8231;DHT22;4156;50.908;6.974;2022-10-16T05:47:09;16.10;99.90
8231;DHT22;4156;50.908;6.974;2022-10-16T05:49:36;16.30;99.90
8231;DHT22;4156;50.908;6.974;2022-10-16T05:52:01;16.30;99.90
8231;DHT22;4156;50.908;6.974;2022-10-16T05:54:27;16.30;99.90
8231;DHT22;4156;50.908;6.974;2022-10-16T05:56:52;16.30;99.90
8231;DHT22;4156;50.908;6.974;2022-10-16T05:59:18;16.20;99.90
8231;DHT22;4156;50.908;6.974;2022-10-16T06:01:43;16.20;99.90
8231;DHT22;4156;50.908;6.974;2022-10-16T06:04:09;16.20;99.90
8231;DHT22;4156;50.908;6.974;2022-10-16T06:06:35;16.20;99.90
8231;DHT22;4156;50.908;6.974;2022-10-16T06:09:01;16.20;99.90
8231;DHT22;4156;50.908;6.974;2022-10-16T06:11:29;16.10;99.90
8231;DHT22;4156;50.908;6.974;2022-10-16T06:13:57;16.10;99.90
8231;DHT22;4156;50.908;6.974;2022-10-16T06:16:25;16.20;99.90
8231;DHT22;4156;50.908;6.974;2022-10-16T06:18:51;16.20;99.90
8231;DHT22;4156;50.908;6.974;2022-10-16T06:21:20;16.20;99.90
8231;DHT22;4156;50.908;6.974;2022-10-16T06:23:46;16.10;99.90
8231;DHT22;4156;50.908;6.974;2022-10-16T06:26:14;16.10;99.90
8231;DHT22;4156;50.908;6.974;2022-10-16T06:28:40;16.10;99.90
8231;DHT22;4156;50.908;6.974;2022-10-16T06:31:07;16.10;99.90
8231;DHT22;4156;50.908;6.974;2022-10-16T06:33:33;16.10;99.90
8231;DHT22;4156;50.908;6.974;2022-10-16T06:36:15;16.10;99.90
8231;DHT22;4156;50.908;6.974;2022-10-16T06:38:41;16.10;99.90
8231;DHT22;4156;50.908;6.974;2022-10-16T06:41:09;16.10;99.90
8231;DHT22;4156;50.908;6.974;2022-10-16T06:43:36;16.00;99.90
8231;DHT22;4156;50.908;6.974;2022-10-16T06:46:02;16.10;99.90
8231;DHT22;4156;50.908;6.974;2022-10-16T06:48:29;16.10;99.90
8231;DHT22;4156;50.908;6.974;2022-10-16T06:50:59;16.10;99.90
8231;DHT22;4156;50.908;6.974;2022-10-16T06:53:25;16.10;99.90
8231;DHT22;4156;50.908;6.974;2022-10-16T06:55:51;16.10;99.90
8231;DHT22;4156;50.908;6.974;2022-10-16T06:58:17;16.10;99.90
8231;DHT22;4156;50.908;6.974;2022-10-16T07:00:42;16.10;99.90
8231;DHT22;4156;50.908;6.974;2022-10-16T07:03:07;16.20;99.90
8231;DHT22;4156;50.908;6.974;2022-10-16T07:05:43;16.20;99.90
8231;DHT22;4156;50.908;6.974;2022-10-16T07:08:09;16.20;99.90
8231;DHT22;4156;50.908;6.974;2022-10-16T07:10:35;16.20;99.90
8231;DHT22;4156;50.908;6.974;2022-10-16T07:13:00;16.30;99.90
8231;DHT22;4156;50.908;6.974;2022-10-16T07:15:27;16.20;99.90
8231;DHT22;4156;50.908;6.974;2022-10-16T07:17:52;16.30;99.90
8231;DHT22;4156;50.908;6.974;2022-10-16T07:20:18;16.30;99.90
8231;DHT22;4156;50.908;6.974;2022-10-16T07:22:44;16.30;99.90
8231;DHT22;4156;50.908;6.974;2022-10-16T07:25:10;16.30;99.90
8231;DHT22;4156;50.908;6.974;2022-10-16T07:27:36;16.30;99.90
8231;DHT22;4156;50.908;6.974;2022-10-16T07:30:03;16.30;99.90
8231;DHT22;4156;50.908;6.974;2022-10-16T07:32:29;16.30;99.90
8231;DHT22;4156;50.908;6.974;2022-10-16T07:34:54;16.40;99.90
8231;DHT22;4156;50.908;6.974;2022-10-16T07:37:21;16.40;99.90
8231;DHT22;4156;50.908;6.974;2022-10-16T07:39:46;16.40;99.90
8231;DHT22;4156;50.908;6.974;2022-10-16T07:42:12;16.40;99.90
8231;DHT22;4156;50.908;6.974;2022-10-16T07:44:37;16.40;99.90
8231;DHT22;4156;50.908;6.974;2022-10-16T07:47:03;16.40;99.90
8231;DHT22;4156;50.908;6.974;2022-10-16T07:49:28;16.40;99.90
8231;DHT22;4156;50.908;6.974;2022-10-16T07:51:54;16.40;99.90
8231;DHT22;4156;50.908;6.974;2022-10-16T07:54:20;16.40;99.90
8231;DHT22;4156;50.908;6.974;2022-10-16T07:56:45;16.50;99.90
8231;DHT22;4156;50.908;6.974;2022-10-16T07:59:11;16.40;99.90
8231;DHT22;4156;50.908;6.974;2022-10-16T08:01:36;16.50;99.90
8231;DHT22;4156;50.908;6.974;2022-10-16T08:04:02;16.50;99.90
8231;DHT22;4156;50.908;6.974;2022-10-16T08:06:27;16.50;99.90
8231;DHT22;4156;50.908;6.974;2022-10-16T08:08:53;16.50;99.90
8231;DHT22;4156;50.908;6.974;2022-10-16T08:11:18;16.50;99.90
8231;DHT22;4156;50.908;6.974;2022-10-16T08:13:44;16.60;99.90
8231;DHT22;4156;50.908;6.974;2022-10-16T08:16:10;16.60;99.90
8231;DHT22;4156;50.908;6.974;2022-10-16T08:18:37;16.60;99.90
8231;DHT22;4156;50.908;6.974;2022-10-16T08:21:05;16.60;99.90
8231;DHT22;4156;50.908;6.974;2022-10-16T08:23:32;16.70;99.90
8231;DHT22;4156;50.908;6.974;2022-10-16T08:26:03;16.70;99.90
8231;DHT22;4156;50.908;6.974;2022-10-16T08:28:28;16.70;99.90
8231;DHT22;4156;50.908;6.974;2022-10-16T08:30:54;16.70;99.90
8231;DHT22;4156;50.908;6.974;2022-10-16T08:33:21;16.70;99.90
8231;DHT22;4156;50.908;6.974;2022-10-16T08:35:51;16.80;99.90
8231;DHT22;4156;50.908;6.974;2022-10-16T08:38:17;16.80;99.90
8231;DHT22;4156;50.908;6.974;2022-10-16T08:40:43;16.80;99.90
8231;DHT22;4156;50.908;6.974;2022-10-16T08:43:34;16.90;99.90
8231;DHT22;4156;50.908;6.974;2022-10-16T08:46:11;16.90;99.90
8231;DHT22;4156;50.908;6.974;2022-10-16T08:48:53;16.90;99.90
8231;DHT22;4156;50.908;6.974;2022-10-16T08:51:28;16.90;99.90
8231;DHT22;4156;50.908;6.974;2022-10-16T08:54:03;17.00;99.90
8231;DHT22;4156;50.908;6.974;2022-10-16T08:56:29;17.00;99.90
8231;DHT22;4156;50.908;6.974;2022-10-16T08:58:57;17.00;99.90
8231;DHT22;4156;50.908;6.974;2022-10-16T09:01:32;17.00;99.90
8231;DHT22;4156;50.908;6.974;2022-10-16T09:04:22;17.00;99.90
8231;DHT22;4156;50.908;6.974;2022-10-16T09:06:55;17.00;99.90
8231;DHT22;4156;50.908;6.974;2022-10-16T09:09:48;17.10;99.90
8231;DHT22;4156;50.908;6.974;2022-10-16T09:15:27;17.10;99.90
8231;DHT22;4156;50.908;6.974;2022-10-16T09:18:09;17.10;99.90
8231;DHT22;4156;50.908;6.974;2022-10-16T09:23:33;17.10;99.90
8231;DHT22;4156;50.908;6.974;2022-10-16T09:25:59;17.20;99.90
8231;DHT22;4156;50.908;6.974;2022-10-16T09:28:25;17.20;99.90
8231;DHT22;4156;50.908;6.974;2022-10-16T09:30:53;17.20;99.90
8231;DHT22;4156;50.908;6.974;2022-10-16T09:33:23;17.20;99.90
8231;DHT22;4156;50.908;6.974;2022-10-16T09:35:56;17.30;99.90
8231;DHT22;4156;50.908;6.974;2022-10-16T09:38:29;17.30;99.90
8231;DHT22;4156;50.908;6.974;2022-10-16T09:41:13;17.30;99.90
8231;DHT22;4156;50.908;6.974;2022-10-16T09:43:53;17.30;99.90
8231;DHT22;4156;50.908;6.974;2022-10-16T09:46:35;17.30;99.90
8231;DHT22;4156;50.908;6.974;2022-10-16T09:49:03;17.30;99.90
8231;DHT22;4156;50.908;6.974;2022-10-16T09:51:32;17.40;99.90
8231;DHT22;4156;50.908;6.974;2022-10-16T09:54:00;17.40;99.90
8231;DHT22;4156;50.908;6.974;2022-10-16T09:56:36;17.40;99.90
8231;DHT22;4156;50.908;6.974;2022-10-16T09:59:11;17.50;99.90
8231;DHT22;4156;50.908;6.974;2022-10-16T10:01:47;17.40;99.90
8231;DHT22;4156;50.908;6.974;2022-10-16T10:04:13;17.50;99.90
8231;DHT22;4156;50.908;6.974;2022-10-16T10:06:52;17.50;99.90
8231;DHT22;4156;50.908;6.974;2022-10-16T10:09:26;17.50;99.90
8231;DHT22;4156;50.908;6.974;2022-10-16T10:11:57;17.50;99.90
8231;DHT22;4156;50.908;6.974;2022-10-16T10:14:27;17.50;99.90
8231;DHT22;4156;50.908;6.974;2022-10-16T10:19:48;17.50;99.90
8231;DHT22;4156;50.908;6.974;2022-10-16T10:27:53;17.60;99.90
8231;DHT22;4156;50.908;6.974;2022-10-16T10:30:52;17.60;99.90
8231;DHT22;4156;50.908;6.974;2022-10-16T10:41:38;17.60;99.90
8231;DHT22;4156;50.908;6.974;2022-10-16T10:44:23;17.60;99.90
8231;DHT22;4156;50.908;6.974;2022-10-16T10:46:57;17.60;99.90
8231;DHT22;4156;50.908;6.974;2022-10-16T10:49:29;17.60;99.90
8231;DHT22;4156;50.908;6.974;2022-10-16T10:52:19;17.70;99.90
8231;DHT22;4156;50.908;6.974;2022-10-16T10:55:10;17.70;99.90
8231;DHT22;4156;50.908;6.974;2022-10-16T10:58:15;17.70;99.90
8231;DHT22;4156;50.908;6.974;2022-10-16T11:00:54;17.70;99.90
8231;DHT22;4156;50.908;6.974;2022-10-16T11:09:50;17.70;99.90
8231;DHT22;4156;50.908;6.974;2022-10-16T11:12:34;17.80;99.90
8231;DHT22;4156;50.908;6.974;2022-10-16T11:15:05;17.80;99.90
8231;DHT22;4156;50.908;6.974;2022-10-16T11:17:53;17.80;99.90
8231;DHT22;4156;50.908;6.974;2022-10-16T11:20:24;17.80;99.90
8231;DHT22;4156;50.908;6.974;2022-10-16T11:22:55;17.80;99.90
8231;DHT22;4156;50.908;6.974;2022-10-16T11:25:30;17.90;99.90
8231;DHT22;4156;50.908;6.974;2022-10-16T11:28:14;17.90;99.90
8231;DHT22;4156;50.908;6.974;2022-10-16T11:31:03;17.90;99.90
8231;DHT22;4156;50.908;6.974;2022-10-16T11:33:39;17.90;99.90
8231;DHT22;4156;50.908;6.974;2022-10-16T11:38:59;17.90;99.90
8231;DHT22;4156;50.908;6.974;2022-10-16T11:41:41;18.00;99.90
8231;DHT22;4156;50.908;6.974;2022-10-16T11:46:40;18.00;99.90
8231;DHT22;4156;50.908;6.974;2022-10-16T11:49:18;18.00;99.90
8231;DHT22;4156;50.908;6.974;2022-10-16T11:57:23;18.10;99.90
8231;DHT22;4156;50.908;6.974;2022-10-16T11:59:57;18.10;99.90
8231;DHT22;4156;50.908;6.974;2022-10-16T12:08:14;18.10;99.90
8231;DHT22;4156;50.908;6.974;2022-10-16T12:10:42;18.20;99.90
8231;DHT22;4156;50.908;6.974;2022-10-16T12:18:42;18.20;99.90
8231;DHT22;4156;50.908;6.974;2022-10-16T12:21:09;18.20;99.90
8231;DHT22;4156;50.908;6.974;2022-10-16T12:23:47;18.30;99.90
8231;DHT22;4156;50.908;6.974;2022-10-16T12:26:13;18.30;99.90
8231;DHT22;4156;50.908;6.974;2022-10-16T12:28:39;18.30;99.90
8231;DHT22;4156;50.908;6.974;2022-10-16T12:31:07;18.30;99.90
8231;DHT22;4156;50.908;6.974;2022-10-16T12:33:41;18.30;99.90
8231;DHT22;4156;50.908;6.974;2022-10-16T12:36:15;18.30;99.90
8231;DHT22;4156;50.908;6.974;2022-10-16T12:38:50;18.40;99.90
8231;DHT22;4156;50.908;6.974;2022-10-16T12:41:29;18.40;99.90
8231;DHT22;4156;50.908;6.974;2022-10-16T12:43:56;18.40;99.90
8231;DHT22;4156;50.908;6.974;2022-10-16T12:46:26;18.40;99.90
8231;DHT22;4156;50.908;6.974;2022-10-16T12:51:41;18.40;99.90
8231;DHT22;4156;50.908;6.974;2022-10-16T12:54:12;18.40;99.90
8231;DHT22;4156;50.908;6.974;2022-10-16T12:59:59;18.40;99.90
8231;DHT22;4156;50.908;6.974;2022-10-16T13:02:24;18.40;99.90
8231;DHT22;4156;50.908;6.974;2022-10-16T13:05:35;18.50;99.90
8231;DHT22;4156;50.908;6.974;2022-10-16T13:08:44;18.50;99.90
8231;DHT22;4156;50.908;6.974;2022-10-16T13:11:20;18.50;99.90
8231;DHT22;4156;50.908;6.974;2022-10-16T13:29:52;18.50;99.90
8231;DHT22;4156;50.908;6.974;2022-10-16T13:32:20;18.50;99.90
8231;DHT22;4156;50.908;6.974;2022-10-16T13:34:48;18.50;99.90
8231;DHT22;4156;50.908;6.974;2022-10-16T13:37:22;18.50;99.90
8231;DHT22;4156;50.908;6.974;2022-10-16T13:39:49;18.60;99.90
8231;DHT22;4156;50.908;6.974;2022-10-16T13:42:24;18.60;99.90
8231;DHT22;4156;50.908;6.974;2022-10-16T13:44:52;18.60;99.90
8231;DHT22;4156;50.908;6.974;2022-10-16T13:47:26;18.60;99.90
8231;DHT22;4156;50.908;6.974;2022-10-16T13:52:26;18.60;99.90
8231;DHT22;4156;50.908;6.974;2022-10-16T13:54:52;18.60;99.90
8231;DHT22;4156;50.908;6.974;2022-10-16T13:57:18;18.60;99.90
8231;DHT22;4156;50.908;6.974;2022-10-16T13:59:47;18.70;99.90
8231;DHT22;4156;50.908;6.974;2022-10-16T14:02:33;18.70;99.90
8231;DHT22;4156;50.908;6.974;2022-10-16T14:05:01;18.70;99.90
8231;DHT22;4156;50.908;6.974;2022-10-16T14:07:30;18.70;99.90
8231;DHT22;4156;50.908;6.974;2022-10-16T14:10:03;18.70;99.90
8231;DHT22;4156;50.908;6.974;2022-10-16T14:12:30;18.70;99.90
8231;DHT22;4156;50.908;6.974;2022-10-16T14:14:57;18.80;99.90
8231;DHT22;4156;50.908;6.974;2022-10-16T14:17:27;18.80;99.90
8231;DHT22;4156;50.908;6.974;2022-10-16T14:19:55;18.80;99.90
8231;DHT22;4156;50.908;6.974;2022-10-16T14:22:42;18.80;99.90
8231;DHT22;4156;50.908;6.974;2022-10-16T14:27:56;18.80;99.90
8231;DHT22;4156;50.908;6.974;2022-10-16T14:30:23;18.80;99.90
8231;DHT22;4156;50.908;6.974;2022-10-16T14:32:57;18.80;99.90
8231;DHT22;4156;50.908;6.974;2022-10-16T14:35:25;18.80;99.90
8231;DHT22;4156;50.908;6.974;2022-10-16T14:37:55;18.80;99.90
8231;DHT22;4156;50.908;6.974;2022-10-16T14:40:24;18.80;99.90
8231;DHT22;4156;50.908;6.974;2022-10-16T14:42:50;18.90;99.90
8231;DHT22;4156;50.908;6.974;2022-10-16T14:45:21;18.80;99.90
8231;DHT22;4156;50.908;6.974;2022-10-16T14:47:56;18.80;99.90
8231;DHT22;4156;50.908;6.974;2022-10-16T14:50:22;18.80;99.90
8231;DHT22;4156;50.908;6.974;2022-10-16T14:52:48;18.90;99.90
8231;DHT22;4156;50.908;6.974;2022-10-16T14:55:14;18.90;99.90
8231;DHT22;4156;50.908;6.974;2022-10-16T14:57:40;18.90;99.90
8231;DHT22;4156;50.908;6.974;2022-10-16T15:00:24;18.90;99.90
8231;DHT22;4156;50.908;6.974;2022-10-16T15:02:50;18.90;99.90
8231;DHT22;4156;50.908;6.974;2022-10-16T15:07:41;18.90;99.90
8231;DHT22;4156;50.908;6.974;2022-10-16T15:10:07;18.90;99.90
8231;DHT22;4156;50.908;6.974;2022-10-16T15:12:33;18.90;99.90
8231;DHT22;4156;50.908;6.974;2022-10-16T15:14:58;18.90;99.90
8231;DHT22;4156;50.908;6.974;2022-10-16T15:17:24;18.90;99.90
8231;DHT22;4156;50.908;6.974;2022-10-16T15:19:49;18.90;99.90
8231;DHT22;4156;50.908;6.974;2022-10-16T15:22:16;18.90;99.90
8231;DHT22;4156;50.908;6.974;2022-10-16T15:24:42;19.80;99.90
8231;DHT22;4156;50.908;6.974;2022-10-16T15:27:07;18.90;99.90
8231;DHT22;4156;50.908;6.974;2022-10-16T15:29:33;18.90;99.90
8231;DHT22;4156;50.908;6.974;2022-10-16T15:31:59;19.00;99.90
8231;DHT22;4156;50.908;6.974;2022-10-16T15:34:24;19.00;99.90
8231;DHT22;4156;50.908;6.974;2022-10-16T15:36:50;19.00;99.90
8231;DHT22;4156;50.908;6.974;2022-10-16T15:39:18;19.00;99.90
8231;DHT22;4156;50.908;6.974;2022-10-16T15:41:45;19.10;99.90
8231;DHT22;4156;50.908;6.974;2022-10-16T15:44:18;19.00;99.90
8231;DHT22;4156;50.908;6.974;2022-10-16T15:46:45;19.00;99.90
8231;DHT22;4156;50.908;6.974;2022-10-16T15:49:11;19.00;99.90
8231;DHT22;4156;50.908;6.974;2022-10-16T15:51:39;19.00;99.90
8231;DHT22;4156;50.908;6.974;2022-10-16T15:54:05;19.00;99.90
8231;DHT22;4156;50.908;6.974;2022-10-16T15:56:30;19.00;99.90
8231;DHT22;4156;50.908;6.974;2022-10-16T15:58:59;19.00;99.90
8231;DHT22;4156;50.908;6.974;2022-10-16T16:01:25;19.00;99.90
8231;DHT22;4156;50.908;6.974;2022-10-16T16:03:53;19.10;99.90
8231;DHT22;4156;50.908;6.974;2022-10-16T16:06:19;19.10;99.90
8231;DHT22;4156;50.908;6.974;2022-10-16T16:08:44;19.10;99.90
8231;DHT22;4156;50.908;6.974;2022-10-16T16:11:12;19.10;99.90
8231;DHT22;4156;50.908;6.974;2022-10-16T16:13:39;19.10;99.90
8231;DHT22;4156;50.908;6.974;2022-10-16T16:16:07;19.10;99.90
8231;DHT22;4156;50.908;6.974;2022-10-16T16:18:33;19.10;99.90
8231;DHT22;4156;50.908;6.974;2022-10-16T16:20:58;19.10;99.90
8231;DHT22;4156;50.908;6.974;2022-10-16T16:23:24;19.10;99.90
8231;DHT22;4156;50.908;6.974;2022-10-16T16:26:09;19.10;99.90
8231;DHT22;4156;50.908;6.974;2022-10-16T16:28:35;19.10;99.90
8231;DHT22;4156;50.908;6.974;2022-10-16T16:31:01;19.10;99.90
8231;DHT22;4156;50.908;6.974;2022-10-16T16:33:26;19.10;99.90
8231;DHT22;4156;50.908;6.974;2022-10-16T16:35:56;19.10;99.90
8231;DHT22;4156;50.908;6.974;2022-10-16T16:38:22;19.10;99.90
8231;DHT22;4156;50.908;6.974;2022-10-16T16:40:48;19.10;99.90
8231;DHT22;4156;50.908;6.974;2022-10-16T16:43:13;19.10;99.90
8231;DHT22;4156;50.908;6.974;2022-10-16T16:45:39;19.10;99.90
8231;DHT22;4156;50.908;6.974;2022-10-16T16:48:04;19.10;99.90
8231;DHT22;4156;50.908;6.974;2022-10-16T16:50:35;19.10;99.90
8231;DHT22;4156;50.908;6.974;2022-10-16T16:53:01;19.10;99.90
8231;DHT22;4156;50.908;6.974;2022-10-16T16:55:26;19.10;99.90
8231;DHT22;4156;50.908;6.974;2022-10-16T16:57:52;19.10;99.90
8231;DHT22;4156;50.908;6.974;2022-10-16T17:00:17;19.10;99.90
8231;DHT22;4156;50.908;6.974;2022-10-16T17:02:43;19.10;99.90
8231;DHT22;4156;50.908;6.974;2022-10-16T17:05:10;19.10;99.90
8231;DHT22;4156;50.908;6.974;2022-10-16T17:07:36;19.10;99.90
8231;DHT22;4156;50.908;6.974;2022-10-16T17:10:05;19.10;99.90
8231;DHT22;4156;50.908;6.974;2022-10-16T17:12:31;19.10;99.90
8231;DHT22;4156;50.908;6.974;2022-10-16T17:14:56;19.10;99.90
8231;DHT22;4156;50.908;6.974;2022-10-16T17:17:22;19.10;99.90
8231;DHT22;4156;50.908;6.974;2022-10-16T17:19:50;19.10;99.90
8231;DHT22;4156;50.908;6.974;2022-10-16T17:22:15;19.10;99.90
8231;DHT22;4156;50.908;6.974;2022-10-16T17:24:41;19.10;99.90
8231;DHT22;4156;50.908;6.974;2022-10-16T17:27:07;19.10;99.90
8231;DHT22;4156;50.908;6.974;2022-10-16T17:29:33;19.10;99.90
8231;DHT22;4156;50.908;6.974;2022-10-16T17:31:58;19.10;99.90
8231;DHT22;4156;50.908;6.974;2022-10-16T17:34:24;19.10;99.90
8231;DHT22;4156;50.908;6.974;2022-10-16T17:36:50;19.10;99.90
8231;DHT22;4156;50.908;6.974;2022-10-16T17:39:16;19.30;99.90
8231;DHT22;4156;50.908;6.974;2022-10-16T17:41:46;19.10;99.90
8231;DHT22;4156;50.908;6.974;2022-10-16T17:44:12;19.10;99.90
8231;DHT22;4156;50.908;6.974;2022-10-16T17:46:48;19.10;99.90
8231;DHT22;4156;50.908;6.974;2022-10-16T17:49:15;19.10;99.90
8231;DHT22;4156;50.908;6.974;2022-10-16T17:51:40;19.10;99.90